»·PEaware :: N215AF KMYF-KSNA

N215AF :: KMYF-KSNA

FLIGHT INFORMATION

Flight Status: Arrived
Operator: Privately registered:
United States
More flights under this callsign
Pilot: Paul D. (20310)
Aircraft: CESSNA 172 SKYHAWK
(C172)
More flights by this aircraft type
Origin: KMYF Montgomery
United States
Destination: KSNA John Wayne-Orange Co
United States
More flights between these airports :: More routes between these airports
Route: +
File this flight plan on PilotEdge
Remarks:
Altitude:
(Current/Filed)
4,500ft
Speed:
(Current/Filed)
0kts
Departed: 12-Jan-19 09:07 PM
Arrived: 12-Jan-19 09:48 PM
Distance/Time
Traveled:
63nm/0:41
Distance/Time
To Go:
Arrived

Flight Plot

Page will automatically refresh every two minutes.


Map Options




Map Legend


Flown Route
Filed Route
Departure Airport
Arrival Airport
Navaid (VOR, NDB)
Fix

Horizontal Profiles

Position Reports

Time Latitude Longitude Heading Altitude Ground
Speed
12-Jan-19 20:58 32.810579 -117.138871 177 416ft 0kts
12-Jan-19 20:59 32.810579 -117.138871 177 416ft 0kts
12-Jan-19 21:00 32.810562 -117.138870 177 416ft 2kts
12-Jan-19 21:01 32.811804 -117.137800 22 418ft 14kts
12-Jan-19 21:02 32.811689 -117.134065 120 421ft 17kts
12-Jan-19 21:03 32.811981 -117.131487 23 422ft 0kts
12-Jan-19 21:04 32.812008 -117.131474 20 422ft 0kts
12-Jan-19 21:05 32.812025 -117.131466 20 422ft 0kts
12-Jan-19 21:06 32.814269 -117.134808 296 422ft 75kts
12-Jan-19 21:07 32.826160 -117.160289 276 1221ft 102kts
12-Jan-19 21:08 32.832966 -117.192612 297 1922ft 114kts
12-Jan-19 21:09 32.839085 -117.220535 279 1771ft 100kts
12-Jan-19 21:10 32.839085 -117.220535 279 1771ft 100kts
12-Jan-19 21:11 32.848069 -117.251248 316 1559ft 121kts
12-Jan-19 21:12 32.882384 -117.262004 352 1548ft 121kts
12-Jan-19 21:13 32.916483 -117.269386 348 1458ft 121kts
12-Jan-19 21:14 32.950802 -117.278273 350 1438ft 124kts
12-Jan-19 21:15 32.984737 -117.284330 349 1928ft 116kts
12-Jan-19 21:16 33.018184 -117.292906 338 2256ft 131kts
12-Jan-19 21:17 33.037281 -117.309730 342 3289ft 109kts
12-Jan-19 21:18 33.064337 -117.323612 339 4017ft 110kts
12-Jan-19 21:20 33.093278 -117.344983 330 4450ft 121kts
12-Jan-19 21:21 33.121204 -117.365493 333 4571ft 110kts
12-Jan-19 21:22 33.148441 -117.383705 328 4610ft 110kts
12-Jan-19 21:23 33.175530 -117.406508 322 4466ft 117kts
12-Jan-19 21:24 33.202482 -117.433396 325 3241ft 126kts
12-Jan-19 21:25 33.222647 -117.442892 342 2819ft 114kts
12-Jan-19 21:26 33.251136 -117.461625 323 2359ft 121kts
12-Jan-19 21:27 33.277054 -117.487619 325 2462ft 122kts
12-Jan-19 21:28 33.303741 -117.514264 311 2490ft 123kts
12-Jan-19 21:29 33.320527 -117.534266 322 2547ft 123kts
12-Jan-19 21:30 33.337574 -117.553057 317 2580ft 125kts
12-Jan-19 21:31 33.359238 -117.575920 308 2338ft 135kts
12-Jan-19 21:32 33.377928 -117.611263 312 2515ft 122kts
12-Jan-19 21:33 33.399771 -117.633024 326 3444ft 104kts
12-Jan-19 21:34 33.422564 -117.661357 316 3603ft 128kts
12-Jan-19 21:35 33.450769 -117.689981 325 3304ft 125kts
12-Jan-19 21:36 33.466469 -117.702428 326 3390ft 97kts
12-Jan-19 21:37 33.488845 -117.725444 317 3187ft 115kts
12-Jan-19 21:38 33.511638 -117.748215 324 3227ft 110kts
12-Jan-19 21:39 33.537737 -117.767877 328 2833ft 121kts
12-Jan-19 21:40 33.564294 -117.784749 332 2746ft 100kts
12-Jan-19 21:41 33.588557 -117.799406 328 2835ft 102kts
12-Jan-19 21:42 33.608922 -117.822269 317 2696ft 95kts
12-Jan-19 21:43 33.630202 -117.843860 321 2363ft 104kts
12-Jan-19 21:44 33.655077 -117.855469 15 1450ft 84kts
12-Jan-19 21:44 33.671399 -117.846831 24 1064ft 72kts
12-Jan-19 21:45 33.685175 -117.847887 292 892ft 54kts
12-Jan-19 21:46 33.682434 -117.864247 219 146ft 51kts
12-Jan-19 21:47 33.677307 -117.866569 109 60ft 0kts
12-Jan-19 21:48 33.676950 -117.865771 116 60ft 9kts

Navigation Log

Ident Type
Flight plan parsing failed, navigation log unavailable